Time;durP1;ratioP1;P1;durP2;ratioP2;P2;SDS_P1;SDS_P2;PMS_P1;PMS_P2;Temp;Humidity;BMP_temperature;BMP_pressure;BME280_temperature;BME280_humidity;BME280_pressure;Samples;Min_cycle;Max_cycle;Signal;HPM_P1;HPM_P2
2023/10/24 00:00:16;;;;;;;25.05;15.00;;;;;;;10.95;100.00;99980.47;4993394;28;20038;-55
2023/10/24 00:02:41;;;;;;;26.92;15.68;;;;;;;10.98;100.00;99982.09;4992131;28;20062;-57
2023/10/24 00:05:07;;;;;;;20.13;14.38;;;;;;;11.36;100.00;100043.50;4990723;28;20121;-57
2023/10/24 00:07:33;;;;;;;23.55;14.60;;;;;;;11.24;100.00;100024.72;4993017;28;20038;-57
2023/10/24 00:09:58;;;;;;;27.80;14.73;;;;;;;11.01;100.00;99971.44;4992002;28;20084;-56
2023/10/24 00:12:23;;;;;;;24.77;14.55;;;;;;;11.38;100.00;100020.59;4993053;28;20389;-55
2023/10/24 00:14:49;;;;;;;20.52;14.32;;;;;;;11.00;100.00;99959.22;4993178;28;20414;-58
2023/10/24 00:17:14;;;;;;;25.00;15.38;;;;;;;11.39;100.00;100017.84;4991308;28;20397;-57
2023/10/24 00:19:39;;;;;;;20.25;14.45;;;;;;;11.38;100.00;100017.94;4992634;28;20433;-58
2023/10/24 00:22:05;;;;;;;29.85;15.88;;;;;;;11.33;100.00;99991.81;4991416;28;20114;-55
2023/10/24 00:24:30;;;;;;;22.08;15.25;;;;;;;11.42;100.00;99996.63;4991620;28;20054;-58
2023/10/24 00:26:57;;;;;;;23.40;15.88;;;;;;;11.08;100.00;99938.63;4991490;28;20026;-58
2023/10/24 00:29:22;;;;;;;25.85;16.67;;;;;;;11.17;100.00;99946.94;4991619;28;20064;-57
2023/10/24 00:31:47;;;;;;;24.20;15.52;;;;;;;11.47;100.00;99993.78;4992771;28;20057;-58
2023/10/24 00:34:13;;;;;;;23.92;18.00;;;;;;;11.36;100.00;99986.38;4992663;28;20042;-57
2023/10/24 00:36:40;;;;;;;24.10;17.30;;;;;;;11.13;100.00;99926.94;4990378;28;20034;-57
2023/10/24 00:39:05;;;;;;;24.90;17.92;;;;;;;11.43;100.00;99982.53;4973497;28;20034;-59
2023/10/24 00:41:31;;;;;;;25.45;17.05;;;;;;;11.47;100.00;99983.25;4973714;28;20077;-58
2023/10/24 00:43:56;;;;;;;25.17;17.73;;;;;;;11.32;100.00;99959.31;4973116;28;20046;-58
2023/10/24 00:46:22;;;;;;;26.50;18.92;;;;;;;11.45;100.00;99972.75;4973189;28;20039;-58
2023/10/24 00:48:48;;;;;;;29.15;19.98;;;;;;;11.14;100.00;99920.75;4939862;28;20026;-57
2023/10/24 00:51:13;;;;;;;28.25;19.35;;;;;;;11.53;100.00;99980.31;4955869;28;20031;-57
2023/10/24 00:53:39;;;;;;;32.03;21.33;;;;;;;11.52;100.00;99975.94;4969122;28;20066;-58
2023/10/24 00:56:05;;;;;;;28.02;20.88;;;;;;;11.52;100.00;99976.81;4992521;28;20046;-57
2023/10/24 00:58:30;;;;;;;28.95;20.50;;;;;;;11.51;100.00;99961.91;4992623;28;20474;-57
2023/10/24 01:00:56;;;;;;;34.50;22.05;;;;;;;11.54;100.00;99971.44;4992531;28;20033;-56
2023/10/24 01:03:22;;;;;;;36.15;22.48;;;;;;;11.43;100.00;99953.53;4975180;28;20034;-57
2023/10/24 01:05:47;;;;;;;33.67;21.85;;;;;;;11.27;100.00;99952.59;4992236;28;20034;-57
2023/10/24 01:08:13;;;;;;;41.88;24.35;;;;;;;11.35;100.00;99939.91;4974026;28;20046;-56
2023/10/24 01:10:38;;;;;;;31.20;22.45;;;;;;;11.20;100.00;99909.91;4992394;28;20037;-57
2023/10/24 01:13:04;;;;;;;34.85;23.98;;;;;;;11.26;100.00;99912.25;4991302;28;20327;-58
2023/10/24 01:15:29;;;;;;;45.90;25.00;;;;;;;11.60;100.00;99968.50;4992195;28;20042;-58
2023/10/24 01:17:55;;;;;;;34.15;22.92;;;;;;;11.26;100.00;99900.84;4991141;28;20046;-57
2023/10/24 01:20:21;;;;;;;43.55;25.27;;;;;;;11.60;100.00;99964.09;4974711;28;20061;-57
2023/10/24 01:22:47;;;;;;;40.78;24.52;;;;;;;11.62;100.00;99961.38;4992170;28;20133;-57
2023/10/24 01:25:14;;;;;;;45.67;26.20;;;;;;;11.62;100.00;99962.22;4973878;28;20064;-58
2023/10/24 01:27:40;;;;;;;39.17;25.15;;;;;;;11.63;100.00;99974.47;4991014;28;20030;-56
2023/10/24 01:30:06;;;;;;;39.92;25.23;;;;;;;11.66;100.00;99970.84;4991031;28;20038;-58
2023/10/24 01:32:31;;;;;;;52.88;28.08;;;;;;;11.53;100.00;99944.22;4992092;28;20035;-54
2023/10/24 01:34:56;;;;;;;44.58;26.25;;;;;;;11.65;100.00;99954.16;4992308;28;20054;-58
2023/10/24 01:37:22;;;;;;;44.83;26.38;;;;;;;11.57;100.00;99945.78;4992228;28;20121;-58
2023/10/24 01:39:47;;;;;;;37.13;23.92;;;;;;;11.64;100.00;99951.63;4990922;28;20042;-59
2023/10/24 01:42:12;;;;;;;40.60;25.00;;;;;;;11.67;100.00;99952.31;4990910;28;20505;-57
2023/10/24 01:44:38;;;;;;;38.47;24.48;;;;;;;11.55;100.00;99931.84;4992330;28;20046;-60
2023/10/24 01:47:03;;;;;;;34.65;23.35;;;;;;;11.61;100.00;99943.88;4991761;28;20042;-58
2023/10/24 01:49:28;;;;;;;42.38;24.30;;;;;;;11.65;100.00;99951.53;4990621;28;20125;-57
2023/10/24 01:51:54;;;;;;;36.60;24.23;;;;;;;11.30;100.00;99884.78;4991150;28;20061;-58
2023/10/24 01:54:19;;;;;;;36.40;24.75;;;;;;;11.66;100.00;99952.38;4974455;28;20445;-59
2023/10/24 01:56:44;;;;;;;44.67;26.15;;;;;;;11.60;100.00;99943.00;4992184;28;20038;-58
2023/10/24 01:59:10;;;;;;;36.90;24.67;;;;;;;11.68;100.00;99943.47;4989038;28;20068;-58
2023/10/24 02:01:35;;;;;;;44.00;26.05;;;;;;;11.32;100.00;99883.88;4991922;28;20035;-54
2023/10/24 02:04:01;;;;;;;37.47;25.45;;;;;;;11.68;100.00;99945.25;4991953;28;20027;-58
2023/10/24 02:06:26;;;;;;;40.72;25.35;;;;;;;11.55;100.00;99923.94;4994537;28;20038;-58
2023/10/24 02:08:51;;;;;;;44.97;26.48;;;;;;;10.98;100.00;99855.72;4995165;28;20489;-54
2023/10/24 02:11:17;;;;;;;43.38;26.23;;;;;;;11.62;100.00;99949.03;4995632;28;20038;-58
2023/10/24 02:13:42;;;;;;;41.25;25.33;;;;;;;11.64;100.00;99941.06;4994004;28;20173;-58
2023/10/24 02:16:07;;;;;;;43.28;26.77;;;;;;;11.67;100.00;99939.16;4994026;28;20066;-57
2023/10/24 02:18:33;;;;;;;41.92;26.13;;;;;;;11.33;100.00;99881.16;4995452;28;20058;-58
2023/10/24 02:20:58;;;;;;;43.30;26.42;;;;;;;11.67;100.00;99941.78;4995102;28;20046;-54
2023/10/24 02:23:23;;;;;;;42.47;25.50;;;;;;;11.34;100.00;99876.72;4995255;28;20030;-58
2023/10/24 02:25:49;;;;;;;40.85;28.10;;;;;;;11.68;100.00;99942.59;4995292;28;20037;-58
2023/10/24 02:28:14;;;;;;;43.33;26.02;;;;;;;11.60;100.00;99916.66;4994113;28;20092;-56
2023/10/24 02:30:39;;;;;;;44.58;27.42;;;;;;;11.31;100.00;99869.84;4994859;28;20034;-58
2023/10/24 02:33:05;;;;;;;43.60;27.08;;;;;;;11.36;100.00;99882.78;4993443;28;20038;-57
2023/10/24 02:35:30;;;;;;;45.17;27.23;;;;;;;11.65;100.00;99926.94;4995019;28;20037;-58
2023/10/24 02:37:56;;;;;;;52.17;28.85;;;;;;;11.32;100.00;99863.66;4977649;28;20042;-57
2023/10/24 02:40:21;;;;;;;46.90;28.95;;;;;;;11.28;100.00;99862.09;4994694;28;20537;-60
2023/10/24 02:42:46;;;;;;;45.67;28.40;;;;;;;11.62;100.00;99929.72;4994512;28;20113;-56
2023/10/24 02:45:12;;;;;;;44.75;29.50;;;;;;;11.21;100.00;99861.53;4995192;28;20038;-59
2023/10/24 02:47:37;;;;;;;41.55;28.17;;;;;;;11.64;100.00;99920.84;4994580;28;20458;-56
2023/10/24 02:50:03;;;;;;;44.95;27.98;;;;;;;11.29;100.00;99876.97;4993591;28;20050;-58
2023/10/24 02:52:29;;;;;;;43.47;27.95;;;;;;;11.27;100.00;99863.88;4994107;28;20046;-58
2023/10/24 02:54:55;;;;;;;42.83;28.15;;;;;;;11.37;100.00;99873.94;4993602;28;20034;-59
2023/10/24 02:57:20;;;;;;;46.70;30.02;;;;;;;11.52;100.00;99904.78;4994362;28;20097;-58
2023/10/24 02:59:46;;;;;;;48.55;29.60;;;;;;;11.62;100.00;99933.22;4994462;28;20118;-59
2023/10/24 03:02:12;;;;;;;42.50;28.20;;;;;;;11.61;100.00;99928.06;4994007;28;20204;-57
2023/10/24 03:04:38;;;;;;;49.25;29.85;;;;;;;11.56;100.00;99944.06;4993318;28;20510;-58
2023/10/24 03:07:03;;;;;;;44.17;27.60;;;;;;;11.55;100.00;99936.25;4994655;28;20430;-57
2023/10/24 03:09:28;;;;;;;41.10;27.70;;;;;;;11.31;100.00;99896.19;4977122;28;20043;-57
2023/10/24 03:11:54;;;;;;;53.50;30.48;;;;;;;10.91;100.00;99815.69;4993860;28;20030;-57
2023/10/24 03:14:19;;;;;;;45.88;29.95;;;;;;;11.50;100.00;99925.94;4994076;28;20395;-58
2023/10/24 03:16:45;;;;;;;49.00;29.33;;;;;;;11.25;100.00;99872.78;4992439;28;20504;-57
2023/10/24 03:19:10;;;;;;;44.83;28.05;;;;;;;11.62;100.00;99942.91;4992471;28;20062;-57
2023/10/24 03:21:35;;;;;;;40.63;27.27;;;;;;;11.60;100.00;99940.38;4994141;28;20375;-56
2023/10/24 03:24:02;;;;;;;43.33;27.08;;;;;;;11.47;100.00;99936.63;4992715;28;20041;-56
2023/10/24 03:26:27;;;;;;;45.80;28.08;;;;;;;11.42;100.00;99920.22;4992968;28;20169;-58
2023/10/24 03:28:53;;;;;;;46.60;28.45;;;;;;;11.23;100.00;99891.31;4992640;28;20069;-56
2023/10/24 03:31:18;;;;;;;42.38;27.27;;;;;;;11.55;100.00;99949.44;4993849;28;20041;-57
2023/10/24 03:33:44;;;;;;;49.63;28.20;;;;;;;11.52;100.00;99937.28;4993631;28;20057;-57
2023/10/24 03:36:13;;;;;;;44.58;28.70;;;;;;;11.56;100.00;99949.34;4991620;28;20038;-58
2023/10/24 03:38:38;;;;;;;46.05;28.55;;;;;;;11.47;100.00;99936.63;4976527;28;20097;-59
2023/10/24 03:41:04;;;;;;;40.75;26.92;;;;;;;11.54;100.00;99948.59;4992617;28;20038;-56
2023/10/24 03:43:30;;;;;;;51.38;30.33;;;;;;;11.18;100.00;99871.38;4976521;28;20038;-57
2023/10/24 03:45:55;;;;;;;47.80;30.25;;;;;;;11.19;100.00;99876.59;4993237;28;20084;-58
2023/10/24 03:48:20;;;;;;;43.65;28.75;;;;;;;11.51;100.00;99937.34;4992340;28;20118;-56
2023/10/24 03:50:46;;;;;;;45.65;27.48;;;;;;;11.56;100.00;99938.81;4993270;28;20037;-52
2023/10/24 03:53:11;;;;;;;47.03;28.77;;;;;;;11.21;100.00;99884.38;4993034;28;20038;-54
2023/10/24 03:55:37;;;;;;;46.17;27.52;;;;;;;11.59;100.00;99940.44;4993387;28;20093;-53
2023/10/24 03:58:03;;;;;;;45.35;27.63;;;;;;;11.59;100.00;99943.94;4975903;28;20038;-54
2023/10/24 04:00:28;;;;;;;44.85;28.00;;;;;;;11.47;100.00;99920.81;4976198;28;20042;-55
2023/10/24 04:02:54;;;;;;;43.60;27.23;;;;;;;11.57;100.00;99956.34;4993348;28;20030;-59
2023/10/24 04:05:20;;;;;;;42.75;27.00;;;;;;;11.21;100.00;99893.16;4976140;28;20054;-58
2023/10/24 04:07:45;;;;;;;41.97;26.55;;;;;;;11.56;100.00;99945.84;4992079;28;20034;-56
2023/10/24 04:10:12;;;;;;;57.65;29.08;;;;;;;11.49;100.00;99942.69;4992373;28;20049;-53
2023/10/24 04:12:37;;;;;;;54.15;29.55;;;;;;;11.56;100.00;99949.34;4993244;28;20053;-57
2023/10/24 04:15:03;;;;;;;45.08;27.77;;;;;;;11.47;100.00;99925.25;4975513;28;20034;-57
2023/10/24 04:17:29;;;;;;;46.88;27.50;;;;;;;11.44;100.00;99941.22;4992729;28;20049;-58
2023/10/24 04:19:54;;;;;;;46.20;27.48;;;;;;;11.47;100.00;99930.53;4992609;28;20081;-58
2023/10/24 04:22:20;;;;;;;47.47;26.90;;;;;;;11.16;100.00;99879.38;4991737;28;20093;-56
2023/10/24 04:24:46;;;;;;;48.05;27.42;;;;;;;11.14;100.00;99883.00;4991717;28;20454;-58
2023/10/24 04:27:11;;;;;;;48.58;26.83;;;;;;;11.12;100.00;99875.16;4975596;28;20030;-58
2023/10/24 04:29:36;;;;;;;51.38;28.45;;;;;;;11.07;100.00;99864.03;4991711;28;20097;-58
2023/10/24 04:32:02;;;;;;;50.20;28.90;;;;;;;11.37;100.00;99919.59;4992793;28;20034;-58
2023/10/24 04:34:28;;;;;;;50.85;28.92;;;;;;;11.42;100.00;99914.06;4992916;28;20489;-58
2023/10/24 04:36:53;;;;;;;42.38;26.92;;;;;;;11.39;100.00;99928.25;4993013;28;20100;-58
2023/10/24 04:39:19;;;;;;;43.17;27.63;;;;;;;11.06;100.00;99869.38;4992829;28;20038;-58
2023/10/24 04:41:48;;;;;;;42.03;26.45;;;;;;;11.40;100.00;99921.22;4994624;28;20622;-59
2023/10/24 04:44:16;;;;;;;41.63;26.60;;;;;;;11.32;100.00;99912.84;4979499;28;20045;-59
2023/10/24 04:46:54;;;;;;;43.97;27.80;;;;;;;11.30;100.00;99911.13;4997182;28;20041;-58
2023/10/24 04:49:20;;;;;;;38.88;26.75;;;;;;;11.27;100.00;99913.06;4975726;28;20165;-56
2023/10/24 04:51:46;;;;;;;38.17;25.33;;;;;;;11.26;100.00;99914.00;4975128;28;20117;-55
2023/10/24 04:54:12;;;;;;;39.05;26.08;;;;;;;10.88;100.00;99843.94;4991469;28;20045;-56
2023/10/24 04:56:37;;;;;;;39.58;26.27;;;;;;;10.91;100.00;99852.56;4992353;28;20042;-57
2023/10/24 04:59:02;;;;;;;39.10;25.88;;;;;;;11.23;100.00;99901.84;4990831;28;20042;-57
2023/10/24 05:01:28;;;;;;;39.28;26.77;;;;;;;11.29;100.00;99909.41;4992224;28;20434;-55
2023/10/24 05:03:53;;;;;;;41.47;28.02;;;;;;;11.32;100.00;99897.91;4992676;28;20038;-55
2023/10/24 05:06:18;;;;;;;42.53;27.20;;;;;;;11.16;100.00;99878.50;4992264;28;20030;-57
2023/10/24 05:08:44;;;;;;;42.22;27.70;;;;;;;11.35;100.00;99899.53;4992325;28;20042;-57
2023/10/24 05:11:09;;;;;;;40.97;28.13;;;;;;;11.16;100.00;99882.00;4992189;28;20041;-55
2023/10/24 05:13:34;;;;;;;46.55;28.60;;;;;;;11.30;100.00;99894.47;4990906;28;20034;-56
2023/10/24 05:16:00;;;;;;;44.60;27.10;;;;;;;11.30;100.00;99892.69;4991360;28;20505;-57
2023/10/24 05:18:25;;;;;;;42.38;27.83;;;;;;;11.32;100.00;99897.91;4974437;28;20047;-58
2023/10/24 05:20:50;;;;;;;48.45;29.98;;;;;;;11.28;100.00;99883.16;4958813;28;20518;-52
2023/10/24 05:23:16;;;;;;;44.80;27.60;;;;;;;11.31;100.00;99888.28;4992187;28;20103;-55
2023/10/24 05:25:42;;;;;;;39.03;27.10;;;;;;;10.64;100.00;99781.06;4974732;28;20061;-56
2023/10/24 05:28:07;;;;;;;45.90;28.42;;;;;;;11.30;100.00;99905.88;4990857;28;20038;-55
2023/10/24 05:30:33;;;;;;;47.25;28.30;;;;;;;11.31;100.00;99896.19;4990879;28;20397;-54
2023/10/24 05:32:58;;;;;;;46.30;28.92;;;;;;;10.94;100.00;99814.69;4958796;28;20125;-56
2023/10/24 05:35:24;;;;;;;48.22;29.20;;;;;;;10.95;100.00;99813.72;4974574;28;20543;-55
2023/10/24 05:37:49;;;;;;;48.53;28.33;;;;;;;10.92;100.00;99800.72;4992041;28;20060;-57
2023/10/24 05:40:14;;;;;;;49.35;28.75;;;;;;;11.30;100.00;99878.66;4992469;28;20030;-58
2023/10/24 05:42:41;;;;;;;46.15;27.42;;;;;;;10.93;100.00;99810.34;4995804;28;20081;-56
2023/10/24 05:45:07;;;;;;;44.00;28.10;;;;;;;11.31;100.00;99883.00;4995761;28;20030;-56
2023/10/24 05:47:33;;;;;;;43.85;27.10;;;;;;;11.19;100.00;99860.78;4978065;28;20065;-57
2023/10/24 05:49:58;;;;;;;46.40;26.92;;;;;;;10.97;100.00;99823.28;4994589;28;20070;-53
2023/10/24 05:52:23;;;;;;;46.80;27.52;;;;;;;11.14;100.00;99844.34;4995690;28;20042;-56
2023/10/24 05:54:48;;;;;;;41.70;26.83;;;;;;;11.38;100.00;99891.47;4995900;28;20394;-56
2023/10/24 05:57:14;;;;;;;44.53;27.85;;;;;;;11.35;100.00;99879.31;4993778;28;20065;-56
2023/10/24 05:59:39;;;;;;;39.20;28.15;;;;;;;11.23;100.00;99862.34;4995383;28;20541;-56
2023/10/24 06:02:05;;;;;;;47.70;29.88;;;;;;;11.36;100.00;99881.00;4994368;28;20510;-56
2023/10/24 06:04:34;;;;;;;40.85;28.27;;;;;;;11.20;100.00;99838.78;4978226;28;20367;-56
2023/10/24 06:06:59;;;;;;;46.20;30.65;;;;;;;11.40;100.00;99876.44;4976439;28;20034;-56
2023/10/24 06:09:25;;;;;;;42.20;29.27;;;;;;;11.40;100.00;99874.66;4995632;28;20034;-55
2023/10/24 06:11:51;;;;;;;43.45;29.40;;;;;;;11.32;100.00;99865.44;4995131;28;20038;-57
2023/10/24 06:14:17;;;;;;;44.35;28.80;;;;;;;11.37;100.00;99874.81;4994073;28;20050;-55
2023/10/24 06:16:42;;;;;;;44.15;30.00;;;;;;;11.35;100.00;99889.84;4995010;28;20042;-56
2023/10/24 06:19:07;;;;;;;48.97;30.95;;;;;;;11.04;100.00;99826.44;4993892;28;20469;-55
2023/10/24 06:21:33;;;;;;;48.67;29.75;;;;;;;11.39;100.00;99899.28;4995271;28;20113;-57
2023/10/24 06:23:58;;;;;;;44.40;29.38;;;;;;;11.34;100.00;99889.91;4994114;28;20609;-58
2023/10/24 06:26:23;;;;;;;45.33;29.90;;;;;;;11.41;100.00;99907.13;4994924;28;20117;-57
2023/10/24 06:28:49;;;;;;;48.08;30.52;;;;;;;11.38;100.00;99902.00;4994923;28;20034;-54
2023/10/24 06:31:14;;;;;;;48.88;28.30;;;;;;;10.94;100.00;99839.25;4995070;28;20375;-55
2023/10/24 06:33:40;;;;;;;48.67;30.10;;;;;;;11.07;100.00;99840.31;4995344;28;20454;-56
2023/10/24 06:36:06;;;;;;;46.97;30.10;;;;;;;11.43;100.00;99897.34;4994747;28;20096;-59
2023/10/24 06:38:31;;;;;;;43.30;29.67;;;;;;;11.47;100.00;99904.19;4994892;28;20043;-56
2023/10/24 06:40:58;;;;;;;45.75;29.15;;;;;;;11.46;100.00;99907.75;4992893;28;20069;-56
2023/10/24 06:43:25;;;;;;;44.78;28.25;;;;;;;11.49;100.00;99907.59;4994752;28;20042;-56
2023/10/24 06:45:50;;;;;;;40.22;27.60;;;;;;;11.40;100.00;99905.41;4994771;28;20566;-57
2023/10/24 06:48:16;;;;;;;38.53;27.58;;;;;;;11.11;100.00;99841.88;4994708;28;20107;-57
2023/10/24 06:50:41;;;;;;;44.15;28.98;;;;;;;11.50;100.00;99914.56;4994722;28;20038;-57
2023/10/24 06:53:08;;;;;;;42.17;28.08;;;;;;;11.46;100.00;99919.13;4992225;28;20430;-56
2023/10/24 06:55:33;;;;;;;40.85;27.77;;;;;;;10.97;100.00;99831.19;4994414;28;20039;-56
2023/10/24 06:57:59;;;;;;;39.40;27.00;;;;;;;11.40;100.00;99915.94;4993320;28;20466;-56
2023/10/24 07:00:25;;;;;;;38.45;27.02;;;;;;;11.52;100.00;99924.09;4994477;28;20066;-55
2023/10/24 07:02:51;;;;;;;38.55;27.73;;;;;;;11.46;100.00;99910.38;4994314;28;20501;-56
2023/10/24 07:05:16;;;;;;;34.55;25.58;;;;;;;11.15;100.00;99856.59;4991882;28;20030;-57
2023/10/24 07:07:42;;;;;;;32.67;25.42;;;;;;;11.57;100.00;99927.34;4992550;28;20030;-56
2023/10/24 07:10:08;;;;;;;32.42;25.90;;;;;;;11.15;100.00;99867.13;4994173;28;20030;-54
2023/10/24 07:12:33;;;;;;;37.05;26.85;;;;;;;11.45;100.00;99935.88;4975624;28;20030;-55
2023/10/24 07:14:59;;;;;;;36.85;26.23;;;;;;;11.47;100.00;99928.72;4992868;28;20703;-57
2023/10/24 07:17:25;;;;;;;37.53;27.33;;;;;;;11.48;100.00;99922.53;4991002;28;20163;-58
2023/10/24 07:19:50;;;;;;;34.65;28.70;;;;;;;11.32;100.00;99889.16;4993848;28;20039;-57
2023/10/24 07:22:15;;;;;;;37.33;27.42;;;;;;;11.42;100.00;99904.41;4994066;28;20417;-56
2023/10/24 07:24:41;;;;;;;38.08;27.35;;;;;;;11.47;100.00;99918.19;4973618;28;20074;-54
2023/10/24 07:27:08;;;;;;;38.88;27.85;;;;;;;11.47;100.00;99914.72;4957170;28;20038;-56
2023/10/24 07:29:34;;;;;;;35.60;26.00;;;;;;;11.46;100.00;99919.13;4974596;28;20380;-54
2023/10/24 07:31:59;;;;;;;33.17;26.42;;;;;;;11.47;100.00;99907.66;4978299;28;20089;-55
2023/10/24 07:34:25;;;;;;;37.65;27.17;;;;;;;11.23;100.00;99850.94;4991242;28;20193;-57
2023/10/24 07:36:50;;;;;;;33.15;26.33;;;;;;;11.63;100.00;99913.84;4988028;28;20046;-57
2023/10/24 07:39:16;;;;;;;34.97;26.23;;;;;;;11.28;100.00;99851.56;4986183;28;20079;-56
2023/10/24 07:41:41;;;;;;;33.17;25.85;;;;;;;11.32;100.00;99841.72;4988040;28;20042;-59
2023/10/24 07:44:07;;;;;;;30.60;24.13;;;;;;;11.71;100.00;99905.56;4959777;28;20030;-54
2023/10/24 07:46:32;;;;;;;35.15;27.13;;;;;;;11.80;100.00;99913.88;4993069;28;20049;-57
2023/10/24 07:48:58;;;;;;;29.25;24.70;;;;;;;11.82;100.00;99912.00;4993238;28;20070;-56
2023/10/24 07:51:27;;;;;;;29.38;24.67;;;;;;;11.67;100.00;99890.84;4991967;28;20113;-57
2023/10/24 07:53:54;;;;;;;31.02;24.90;;;;;;;11.74;100.00;99906.28;4990604;28;20038;-56
2023/10/24 07:56:19;;;;;;;26.45;22.55;;;;;;;11.81;100.00;99912.09;4992677;28;20066;-54
2023/10/24 07:58:44;;;;;;;25.48;22.77;;;;;;;11.65;100.00;99898.81;4992324;28;20533;-54
2023/10/24 08:01:10;;;;;;;26.85;23.48;;;;;;;11.62;100.00;99908.66;4982486;28;20049;-55
2023/10/24 08:03:35;;;;;;;27.95;24.52;;;;;;;11.65;100.00;99919.03;4984605;28;20508;-54
2023/10/24 08:06:00;;;;;;;26.27;22.35;;;;;;;11.29;100.00;99861.16;4975991;28;20133;-57
2023/10/24 08:08:27;;;;;;;26.15;22.52;;;;;;;11.62;100.00;99906.88;4989852;28;20049;-55
2023/10/24 08:10:52;;;;;;;28.05;23.95;;;;;;;11.61;100.00;99907.81;4993240;28;20042;-57
2023/10/24 08:13:17;;;;;;;28.48;22.40;;;;;;;11.62;100.00;99908.66;4992101;28;20037;-56
2023/10/24 08:15:43;;;;;;;25.50;22.70;;;;;;;11.72;100.00;99905.50;4992994;28;20034;-57
2023/10/24 08:18:09;;;;;;;28.88;22.42;;;;;;;11.82;100.00;99888.25;4993024;28;20165;-55
2023/10/24 08:20:34;;;;;;;27.23;21.17;;;;;;;11.50;100.00;99838.16;4987240;28;20047;-55
2023/10/24 08:23:00;;;;;;;22.40;20.15;;;;;;;11.91;100.00;99894.84;4955913;28;20494;-57
2023/10/24 08:25:25;;;;;;;25.65;21.23;;;;;;;11.96;100.00;99891.97;4973609;28;20473;-57
2023/10/24 08:27:50;;;;;;;24.48;20.50;;;;;;;11.97;100.00;99904.22;4956293;28;20039;-53
2023/10/24 08:30:16;;;;;;;21.30;19.10;;;;;;;12.09;100.00;99925.53;4973396;28;20038;-57
2023/10/24 08:32:41;;;;;;;21.23;18.92;;;;;;;11.70;100.00;99856.44;4973190;28;20094;-56
2023/10/24 08:35:07;;;;;;;22.10;19.00;;;;;;;11.76;100.00;99854.31;4973582;28;20122;-57
2023/10/24 08:37:34;;;;;;;20.38;18.27;;;;;;;11.84;100.00;99851.28;4981638;28;20036;-54
2023/10/24 08:39:59;;;;;;;19.20;17.35;;;;;;;12.24;100.00;99918.59;4975140;28;20026;-56
2023/10/24 08:42:25;;;;;;;18.98;17.20;;;;;;;12.32;100.00;99911.94;4988838;28;20092;-57
2023/10/24 08:44:52;;;;;;;19.00;17.10;;;;;;;12.36;100.00;99888.91;4990248;28;20042;-56
2023/10/24 08:47:18;;;;;;;19.58;17.67;;;;;;;12.37;100.00;99919.63;4991516;28;20081;-57
2023/10/24 08:49:44;;;;;;;18.90;16.98;;;;;;;12.03;100.00;99846.72;4990541;28;20114;-57
2023/10/24 08:52:10;;;;;;;18.10;16.27;;;;;;;12.07;100.00;99850.91;4992693;28;20062;-57
2023/10/24 08:54:35;;;;;;;18.40;16.48;;;;;;;12.23;100.00;99887.88;4991268;28;20133;-56
2023/10/24 08:57:02;;;;;;;17.20;15.43;;;;;;;12.60;100.00;99928.94;4992804;28;20042;-57
2023/10/24 08:59:29;;;;;;;18.95;17.13;;;;;;;12.55;100.00;99931.81;4992456;28;20100;-53
2023/10/24 09:01:54;;;;;;;18.33;16.40;;;;;;;12.28;100.00;99896.38;4991562;28;20031;-56
2023/10/24 09:04:20;;;;;;;18.35;16.67;;;;;;;12.23;100.00;99872.88;4992445;28;20049;-57
2023/10/24 09:06:46;;;;;;;17.88;16.08;;;;;;;12.57;100.00;99939.66;4985652;28;20030;-58
2023/10/24 09:09:12;;;;;;;17.05;15.50;;;;;;;12.47;100.00;99915.56;4973026;28;20035;-56
2023/10/24 09:12:00;;;;;;;18.38;16.45;;;;;;;12.22;100.00;99873.81;4955903;28;20041;-56
2023/10/24 09:14:28;;;;;;;16.90;15.40;;;;;;;12.23;100.00;99878.16;4955730;28;20085;-58
2023/10/24 09:17:03;;;;;;;15.02;13.52;;;;;;;12.53;100.00;99928.41;4976135;28;20340;-58
2023/10/24 09:19:28;;;;;;;14.95;13.55;;;;;;;12.30;100.00;99907.69;4942712;28;20047;-56
2023/10/24 09:21:56;;;;;;;14.00;12.55;;;;;;;12.55;100.00;99942.38;4959346;28;20062;-56
2023/10/24 09:24:21;;;;;;;14.25;12.85;;;;;;;12.21;100.00;99881.81;4986126;28;20049;-56
2023/10/24 09:26:54;;;;;;;14.32;12.95;;;;;;;12.59;100.00;99951.84;4995346;28;20133;-57
2023/10/24 09:29:20;;;;;;;15.15;13.50;;;;;;;12.20;100.00;99874.84;4994441;28;20038;-56
2023/10/24 09:31:49;;;;;;;12.88;11.55;;;;;;;12.48;100.00;99926.97;4995979;28;20321;-56
2023/10/24 09:34:16;;;;;;;13.50;12.05;;;;;;;12.43;100.00;99917.50;4995797;28;20035;-56
2023/10/24 09:36:42;;;;;;;12.77;11.57;;;;;;;12.56;100.00;99946.72;4994829;28;20071;-57
2023/10/24 09:39:11;;;;;;;13.13;11.63;;;;;;;12.58;100.00;99947.47;4993757;28;20401;-53
2023/10/24 09:41:44;;;;;;;12.35;11.05;;;;;;;12.69;100.00;99963.63;4996046;28;20058;-56
2023/10/24 09:44:10;;;;;;;14.82;11.07;;;;;;;12.37;100.00;99909.91;4995734;28;20082;-58
2023/10/24 09:46:36;;;;;;;12.88;10.57;;;;;;;12.65;100.00;99953.28;4995750;28;20038;-55
2023/10/24 09:49:04;;;;;;;12.40;11.10;;;;;;;12.35;100.00;99889.81;4995752;28;20473;-55
2023/10/24 09:51:31;;;;;;;12.48;11.18;;;;;;;12.51;100.00;99905.69;4995664;28;20047;-59
2023/10/24 09:53:56;;;;;;;12.57;10.77;;;;;;;12.85;100.00;99953.91;4993353;28;20413;-59
2023/10/24 09:56:23;;;;;;;12.75;11.45;;;;;;;12.52;100.00;99881.00;4995459;28;20034;-53
2023/10/24 09:58:49;;;;;;;13.75;12.25;;;;;;;12.58;100.00;99912.34;4994689;28;20038;-58
2023/10/24 10:01:14;;;;;;;12.98;11.02;;;;;;;12.91;100.00;99958.84;4995479;28;20038;-59
2023/10/24 10:03:40;;;;;;;12.40;11.18;;;;;;;12.88;100.00;99960.78;4995703;28;20120;-58
2023/10/24 10:06:08;;;;;;;11.65;10.38;;;;;;;12.63;100.00;99920.84;4994312;28;20081;-57
2023/10/24 10:08:40;;;;;;;12.60;11.30;;;;;;;12.53;100.00;99898.53;4994258;28;20474;-56
2023/10/24 10:11:06;;;;;;;12.85;11.60;;;;;;;12.75;100.00;99941.31;4994236;28;20042;-57
2023/10/24 10:13:35;;;;;;;13.48;11.60;;;;;;;12.80;100.00;99947.16;4993635;28;20474;-57
2023/10/24 10:16:14;;;;;;;13.43;10.52;;;;;;;12.35;100.00;99898.59;4978019;28;20084;-57
2023/10/24 10:19:00;;;;;;;12.30;10.95;;;;;;;12.68;100.00;99963.69;4995104;28;20081;-57
2023/10/24 10:21:28;;;;;;;12.63;11.32;;;;;;;12.73;100.00;99953.72;4995249;28;20543;-59
2023/10/24 10:23:56;;;;;;;13.60;10.40;;;;;;;12.65;100.00;99946.22;4995149;28;20132;-56
2023/10/24 10:26:46;;;;;;;11.82;10.63;;;;;;;12.68;100.00;99959.25;4977757;28;20121;-55
2023/10/24 10:29:21;;;;;;;13.02;10.80;;;;;;;12.41;100.00;99905.31;4994924;28;20030;-56
2023/10/24 10:31:48;;;;;;;15.10;11.88;;;;;;;12.72;100.00;99952.03;4993890;28;20053;-57
2023/10/24 10:34:13;;;;;;;15.13;11.52;;;;;;;12.48;100.00;99900.56;4995161;28;20035;-59
2023/10/24 10:36:41;;;;;;;13.00;11.55;;;;;;;12.40;100.00;99882.53;4994643;28;20042;-56
2023/10/24 10:39:10;;;;;;;13.45;12.15;;;;;;;12.50;100.00;99906.59;4994873;28;20034;-58
2023/10/24 10:41:38;;;;;;;12.50;11.38;;;;;;;12.73;100.00;99948.44;4993438;28;20031;-56
2023/10/24 10:44:38;;;;;;;10.70;9.70;;;;;;;12.67;100.00;99951.41;4994871;28;20031;-57
2023/10/24 10:47:05;;;;;;;10.53;9.47;;;;;;;12.27;100.00;99887.63;4993784;28;20121;-56
2023/10/24 10:49:43;;;;;;;11.50;10.00;;;;;;;12.36;100.00;99896.81;4993666;28;20113;-55
2023/10/24 10:52:27;;;;;;;12.05;9.73;;;;;;;12.75;100.00;99955.38;4994207;28;20394;-55
2023/10/24 10:55:28;;;;;;;8.70;7.82;;;;;;;12.74;100.00;99945.72;4993354;28;20038;-57
2023/10/24 10:58:22;;;;;;;8.13;7.38;;;;;;;12.75;100.00;99942.16;4993450;28;20109;-57
2023/10/24 11:01:00;;;;;;;6.88;6.18;;;;;;;12.58;100.00;99913.16;4976991;28;20502;-53
2023/10/24 11:03:34;;;;;;;6.80;6.20;;;;;;;12.84;100.00;99946.91;4994452;28;20041;-55
2023/10/24 11:06:16;;;;;;;5.75;5.22;;;;;;;12.73;100.00;99959.84;4993177;28;20030;-55